Airfield :
LOGIN :

Register | Disclaimer

   EN    FR    IT 

 










Legend :    VFR   Marginal VFR   IFR   Intensive IFR   Very Intensive IFR
Visi :
Ceiling :
>= 8 km
>= 3000ft
5 to 8 km
1000 to 3000 ft
1500m to 5 km
500 to 1000 ft
800 to 1500m
200 to 500 ft
< 800m
< 200 ft
Symbols :   Thunderstorms  Fog  Heavy snow  Heavy precipitations  Wind > 20 kt
SIGMETs :     Misc.  Thunderstorms  Icing  Turbulence  Mountain Waves  Volcanic Ashes






- Airport Elevation : 26 ft
- IATA code : GLA


EGPF - Glasgow

CURRENT METAR :
  • 251120Z AUTO 23012KT 9999 SCT015 BKN020 BKN028 05/03 Q0992

EXPIRED METARs :
  • 251050Z AUTO 25011KT 9999 SCT033 SCT041 04/02 Q0992
  • 251020Z AUTO 23011KT 9999 BKN010/// BKN016/// //////TCU 04/03 Q0992
  • 250950Z AUTO 24009KT 9999 BKN009 04/02 Q0992
  • 250920Z AUTO 23009KT 9999 BKN012 BKN022 03/02 Q0993
  • 250850Z AUTO 24009KT 9999 FEW042 02/01 Q0993

TAF TAF EGPF
Valid from the 25 at 06:00 until the 26 at 06:00 UTC


250457Z 2506/2606 26008KT 9999 SCT012
TEMPO 2506/2524 6000 SHRASN BKN010CB
PROB30
TEMPO 2506/2524 2000 +SHRA SHSN BKN005
ATIS : +44 141 887 7449



MET'MAP, your aeronautical weather chart ! - Copyright ORBIFLY December 2007 - Disclaimer

ORBIFLY MET'MAP TEAM :

Programming & Development : Alexandra Zaïnal
Concept & original design : Baudouin d'Aumeries
Assistance for programming : Marc-Olivier Méhu
Technical & hardware support : Manuel Goepfert

Contact : metmap@orbifly.com




SOURCES & CREDITS :

   NOAA